createdAt,value
2023-03-21T06:48:55.663Z,6.25
2023-03-21T06:53:57.718Z,6.15
2023-03-21T06:59:00.023Z,6.10
2023-03-21T07:04:02.157Z,6.20
2023-03-21T07:09:05.837Z,5.85
2023-03-21T07:14:07.911Z,6.67
2023-03-21T07:19:10.028Z,6.03
2023-03-21T07:24:12.108Z,5.85
2023-03-21T07:29:14.232Z,5.70
2023-03-21T07:34:17.027Z,5.70
2023-03-21T07:39:20.561Z,5.75
2023-03-21T07:44:24.425Z,5.40
2023-03-21T07:49:26.673Z,4.80
2023-03-21T07:54:28.845Z,4.80
2023-03-21T07:59:31.044Z,5.03
2023-03-21T08:04:37.840Z,5.67
2023-03-21T08:09:40.021Z,5.20
2023-03-21T08:14:42.193Z,4.95
2023-03-21T08:19:45.055Z,5.27
2023-03-21T08:24:47.126Z,4.80
2023-03-21T08:29:49.211Z,4.32
2023-03-21T08:34:52.285Z,4.05
2023-03-21T08:39:55.015Z,3.93
2023-03-21T08:44:57.061Z,4.12
2023-03-21T08:49:59.372Z,4.25
2023-03-21T08:55:02.383Z,4.20
2023-03-21T09:00:15.626Z,3.50
2023-03-21T09:05:18.502Z,4.10
2023-03-21T09:10:23.156Z,4.00
2023-03-21T09:15:28.997Z,3.40
2023-03-21T09:20:33.021Z,3.25
2023-03-21T09:25:36.761Z,3.58
2023-03-21T09:30:39.139Z,2.97
2023-03-21T09:35:41.920Z,3.53
2023-03-21T09:41:25.826Z,3.70
2023-03-21T09:46:54.946Z,3.73
2023-03-21T09:52:03.640Z,3.08
2023-03-21T09:57:19.648Z,2.50
2023-03-21T10:02:36.731Z,2.87
2023-03-21T10:07:44.620Z,3.30
2023-03-21T10:12:49.936Z,3.40
2023-03-21T10:17:57.301Z,3.00
2023-03-21T10:23:03.306Z,2.23
2023-03-21T10:28:07.611Z,2.67
2023-03-21T10:33:14.541Z,2.75
2023-03-21T10:38:19.988Z,1.97
2023-03-21T10:43:27.982Z,2.58
2023-03-21T10:48:36.170Z,2.40
2023-03-21T10:53:49.822Z,2.00
2023-03-21T10:58:52.766Z,3.00
2023-03-21T11:04:01.162Z,2.37
2023-03-21T11:09:15.807Z,2.10
2023-03-21T11:14:31.740Z,2.73
2023-03-21T11:19:36.444Z,2.47
2023-03-21T11:24:39.538Z,3.22
2023-03-21T11:29:48.780Z,2.73
2023-03-21T11:35:03.748Z,3.10
2023-03-21T11:40:25.644Z,2.50
2023-03-21T11:45:29.939Z,2.90
2023-03-21T11:50:41.954Z,2.47
2023-03-21T11:56:02.539Z,2.60
2023-03-21T12:01:13.088Z,2.50
2023-03-21T12:06:21.342Z,2.17
2023-03-21T12:11:51.389Z,2.65
2023-03-21T12:16:59.247Z,2.08
2023-03-21T12:22:04.332Z,2.13
2023-03-21T12:27:06.474Z,2.17
2023-03-21T12:32:27.180Z,2.00
2023-03-21T12:37:55.495Z,2.40
2023-03-21T12:43:22.984Z,2.63
2023-03-21T12:48:42.071Z,2.30
2023-03-21T12:54:04.457Z,1.90
2023-03-21T12:59:20.755Z,2.23
2023-03-21T13:04:39.090Z,1.90
2023-03-21T13:09:42.268Z,1.60
2023-03-21T13:15:18.365Z,1.40
2023-03-21T13:20:40.925Z,1.20
2023-03-21T13:25:47.053Z,1.33
2023-03-21T13:30:50.268Z,1.40
2023-03-21T13:36:08.264Z,1.40
2023-03-21T13:41:17.562Z,1.60
2023-03-21T13:46:26.055Z,1.50
2023-03-21T13:51:28.144Z,1.40
2023-03-21T13:56:53.499Z,1.30
2023-03-21T14:02:20.424Z,1.50
2023-03-21T14:07:31.610Z,1.37
2023-03-21T14:12:44.251Z,1.00
2023-03-21T14:17:57.709Z,1.30
2023-03-21T14:23:00.116Z,0.90
2023-03-21T14:28:07.713Z,0.80
2023-03-21T14:33:23.124Z,0.98
2023-03-21T14:38:34.701Z,1.23
2023-03-21T14:43:36.763Z,1.40
2023-03-21T14:48:38.933Z,1.23
2023-03-21T14:53:42.874Z,1.37
2023-03-21T14:58:47.204Z,1.17
2023-03-21T15:03:52.092Z,0.70
2023-03-21T15:08:57.121Z,5.93
2023-03-21T15:14:02.851Z,1.20
2023-03-21T15:19:06.436Z,1.93
2023-03-21T15:24:27.278Z,1.77
2023-03-21T15:29:30.263Z,1.90
2023-03-21T15:34:32.591Z,1.80
2023-03-21T15:39:36.420Z,2.00
2023-03-21T15:44:45.859Z,1.90
2023-03-21T15:49:54.154Z,2.30
2023-03-21T15:54:56.869Z,2.80
2023-03-21T16:00:21.647Z,2.20
2023-03-21T16:05:34.395Z,1.77
2023-03-21T16:10:38.362Z,1.70
2023-03-21T16:15:40.935Z,1.90
2023-03-21T16:20:45.216Z,2.08
2023-03-21T16:25:47.466Z,2.70
2023-03-21T16:30:49.560Z,2.85
2023-03-21T16:35:52.163Z,3.12
2023-03-21T16:40:54.230Z,3.40
2023-03-21T16:45:56.387Z,3.67
2023-03-21T16:50:58.530Z,5.82
2023-03-21T16:56:02.802Z,3.40
2023-03-21T17:01:05.046Z,3.30
2023-03-21T17:06:07.777Z,3.47
2023-03-21T17:11:20.139Z,3.53
2023-03-21T17:16:26.938Z,3.70
2023-03-21T17:21:29.720Z,4.10
2023-03-21T17:26:31.819Z,4.90
2023-03-21T17:31:36.949Z,4.03
2023-03-21T17:36:41.555Z,4.75
2023-03-21T17:41:43.658Z,4.65
2023-03-21T17:46:46.462Z,5.70
2023-03-21T17:51:48.726Z,4.67
2023-03-21T17:56:51.752Z,4.90
2023-03-21T18:01:53.951Z,4.87
2023-03-21T18:06:59.821Z,4.60
2023-03-21T18:12:02.614Z,5.18
2023-03-21T18:17:04.694Z,5.40
2023-03-21T18:22:06.772Z,5.63
2023-03-21T18:27:08.951Z,4.72
2023-03-21T18:32:11.407Z,5.43
2023-03-21T18:37:14.731Z,5.53
2023-03-21T18:42:19.810Z,6.57
2023-03-21T18:47:25.188Z,5.93
2023-03-21T18:52:27.400Z,5.78
2023-03-21T18:57:36.905Z,5.53
2023-03-21T19:02:46.237Z,5.50
2023-03-21T19:07:50.588Z,6.62
2023-03-21T19:12:54.832Z,5.90
2023-03-21T19:23:21.115Z,5.47
2023-03-21T19:28:23.251Z,6.17
2023-03-21T19:33:25.373Z,6.03
2023-03-21T19:38:27.605Z,6.40
2023-03-21T19:43:33.031Z,5.75
2023-03-21T19:48:38.014Z,5.90
2023-03-21T19:53:40.564Z,5.72
2023-03-21T19:58:42.723Z,5.60
2023-03-21T20:03:44.825Z,5.90
2023-03-21T20:09:31.075Z,5.90
2023-03-21T20:14:09.378Z,5.72
2023-03-21T20:19:14.590Z,6.10
2023-03-21T20:24:17.742Z,5.03
2023-03-21T20:30:07.191Z,5.70
2023-03-21T20:34:44.448Z,5.00
2023-03-21T20:39:46.658Z,4.90
2023-03-21T20:44:58.327Z,5.20
2023-03-21T20:50:01.310Z,5.10
2023-03-21T20:55:04.226Z,4.90
2023-03-21T21:00:18.036Z,5.05
2023-03-21T21:05:35.681Z,4.93
2023-03-21T21:11:00.497Z,5.00
2023-03-21T21:16:01.436Z,5.23
2023-03-21T21:21:06.071Z,4.68
